createdAt,value
2022-09-13T00:00:37.228Z,11.15
2022-09-13T00:01:37.269Z,11.21
2022-09-13T00:02:37.204Z,11.06
2022-09-13T00:03:37.204Z,11.14
2022-09-13T00:04:37.162Z,11.07
2022-09-13T00:05:37.211Z,11.02
2022-09-13T00:06:37.138Z,11.10
2022-09-13T00:07:37.145Z,10.99
2022-09-13T00:08:37.164Z,11.09
2022-09-13T00:09:37.131Z,11.02
2022-09-13T00:10:37.149Z,11.06
2022-09-13T00:11:37.112Z,11.02
2022-09-13T00:12:37.074Z,11.04
2022-09-13T00:13:37.071Z,11.03
2022-09-13T00:14:37.090Z,11.03
2022-09-13T00:15:37.040Z,11.14
2022-09-13T00:16:37.065Z,11.07
2022-09-13T00:17:37.024Z,11.04
2022-09-13T00:18:37.044Z,11.09
2022-09-13T00:19:37.058Z,11.14
2022-09-13T00:20:37.003Z,11.09
2022-09-13T00:21:36.974Z,11.15
2022-09-13T00:22:36.960Z,11.21
2022-09-13T00:23:36.951Z,11.14
2022-09-13T00:24:36.980Z,11.15
2022-09-13T00:25:36.948Z,11.17
2022-09-13T00:26:36.941Z,11.10
2022-09-13T00:27:36.905Z,11.10
2022-09-13T00:28:36.978Z,11.02
2022-09-13T00:29:36.924Z,11.00
2022-09-13T00:30:36.884Z,10.97
2022-09-13T00:31:36.930Z,10.81
2022-09-13T00:32:36.848Z,10.88
2022-09-13T00:33:36.838Z,10.78
2022-09-13T00:34:36.849Z,10.82
2022-09-13T00:35:36.925Z,10.81
2022-09-13T00:36:36.827Z,10.82
2022-09-13T00:37:36.823Z,10.82
2022-09-13T00:38:36.897Z,10.71
2022-09-13T00:39:36.772Z,10.67
2022-09-13T00:40:36.762Z,10.68
2022-09-13T00:41:36.762Z,10.67
2022-09-13T00:42:36.757Z,10.71
2022-09-13T00:43:36.777Z,10.71
2022-09-13T00:44:36.744Z,10.76
2022-09-13T00:45:36.744Z,10.73
2022-09-13T00:46:36.693Z,10.79
2022-09-13T00:47:36.689Z,10.70
2022-09-13T00:48:36.697Z,10.79
2022-09-13T00:49:36.705Z,10.70
2022-09-13T00:50:36.659Z,10.81
2022-09-13T00:51:36.658Z,10.81
2022-09-13T00:52:36.629Z,10.78
2022-09-13T00:53:36.689Z,10.74
2022-09-13T00:54:36.636Z,10.78
2022-09-13T00:55:36.643Z,10.82
2022-09-13T00:56:36.595Z,10.79
2022-09-13T00:57:36.575Z,10.84
2022-09-13T00:58:36.597Z,10.91
2022-09-13T00:59:36.568Z,10.88
2022-09-13T01:00:36.564Z,10.81
2022-09-13T01:01:36.527Z,10.79
2022-09-13T01:02:36.521Z,10.91
2022-09-13T01:03:36.605Z,10.85
2022-09-13T01:04:36.510Z,10.85
2022-09-13T01:05:36.506Z,10.85
2022-09-13T01:06:36.512Z,10.86
2022-09-13T01:07:36.509Z,10.73
2022-09-13T01:08:36.459Z,10.81
2022-09-13T01:09:36.447Z,10.78
2022-09-13T01:10:36.437Z,10.84
2022-09-13T01:11:36.447Z,10.81
2022-09-13T01:12:36.447Z,10.85
2022-09-13T01:13:36.534Z,10.79
2022-09-13T01:14:36.384Z,10.78
2022-09-13T01:15:36.392Z,10.79
2022-09-13T01:16:36.438Z,10.76
2022-09-13T01:17:36.374Z,10.70
2022-09-13T01:18:36.336Z,10.71
2022-09-13T01:19:36.327Z,10.66
2022-09-13T01:20:36.438Z,10.56
2022-09-13T01:21:36.325Z,10.56
2022-09-13T01:22:36.317Z,10.53
2022-09-13T01:23:36.320Z,10.61
2022-09-13T01:24:36.269Z,10.66
2022-09-13T01:25:36.261Z,10.55
2022-09-13T01:26:36.277Z,10.55
2022-09-13T01:27:36.258Z,10.56
2022-09-13T01:28:36.272Z,10.60
2022-09-13T01:29:36.214Z,10.60
2022-09-13T01:30:36.202Z,10.59
2022-09-13T01:31:36.413Z,10.64
2022-09-13T01:32:36.214Z,10.70
2022-09-13T01:33:36.228Z,10.64
2022-09-13T01:34:36.185Z,10.60
2022-09-13T01:35:36.147Z,10.60
2022-09-13T01:36:36.156Z,10.47
2022-09-13T01:37:36.128Z,10.45
2022-09-13T01:38:36.151Z,10.51
2022-09-13T01:39:36.130Z,10.44
2022-09-13T01:40:36.120Z,10.42
2022-09-13T01:41:36.080Z,10.45
2022-09-13T01:42:36.068Z,10.36
2022-09-13T01:43:36.061Z,10.33
2022-09-13T01:44:36.091Z,10.47
2022-09-13T01:45:36.112Z,10.41
2022-09-13T01:46:36.024Z,10.32
2022-09-13T01:47:36.012Z,10.42
2022-09-13T01:48:36.008Z,10.38
2022-09-13T01:49:36.004Z,10.45
2022-09-13T01:50:36.089Z,10.41
2022-09-13T01:51:36.006Z,10.45
2022-09-13T01:52:35.956Z,10.45
2022-09-13T01:53:36.005Z,10.42
2022-09-13T01:54:35.935Z,10.34
2022-09-13T01:55:36.039Z,10.33
2022-09-13T01:56:35.955Z,10.27
2022-09-13T01:57:35.943Z,10.23
2022-09-13T01:58:35.888Z,10.32
2022-09-13T01:59:35.928Z,10.20
2022-09-13T02:00:35.868Z,10.14
2022-09-13T02:01:35.951Z,10.15
2022-09-13T02:02:35.922Z,10.22
2022-09-13T02:03:35.884Z,10.23
2022-09-13T02:04:35.821Z,10.27
2022-09-13T02:05:35.816Z,10.22
2022-09-13T02:06:35.811Z,10.32
2022-09-13T02:07:35.832Z,10.29
2022-09-13T02:08:35.818Z,10.27
2022-09-13T02:09:35.766Z,10.26
2022-09-13T02:10:35.755Z,10.38
2022-09-13T02:11:35.769Z,10.32
2022-09-13T02:12:35.772Z,10.36
2022-09-13T02:13:35.798Z,10.36
2022-09-13T02:14:35.755Z,10.42
2022-09-13T02:15:35.700Z,10.34
2022-09-13T02:16:35.821Z,10.33
2022-09-13T02:17:35.680Z,10.34
2022-09-13T02:18:35.680Z,10.36
2022-09-13T02:19:35.691Z,10.36
2022-09-13T02:20:35.680Z,10.36
2022-09-13T02:21:35.634Z,10.34
2022-09-13T02:22:35.629Z,10.40
2022-09-13T02:23:35.637Z,10.34
2022-09-13T02:24:35.618Z,10.42
2022-09-13T02:25:35.632Z,10.34
2022-09-13T02:26:35.575Z,10.26
2022-09-13T02:27:35.584Z,10.34
2022-09-13T02:28:35.569Z,10.32
2022-09-13T02:29:35.583Z,10.30
2022-09-13T02:30:35.579Z,10.27
2022-09-13T02:31:35.585Z,10.29
2022-09-13T02:32:35.509Z,10.34
2022-09-13T02:33:35.566Z,10.33
2022-09-13T02:34:35.723Z,10.41
2022-09-13T02:35:35.490Z,10.33
2022-09-13T02:36:35.496Z,10.34
2022-09-13T02:37:35.489Z,10.34
2022-09-13T02:38:35.451Z,10.36
2022-09-13T02:39:35.433Z,10.38
2022-09-13T02:40:35.446Z,10.25
2022-09-13T02:41:35.421Z,10.23
2022-09-13T02:42:35.435Z,10.32
2022-09-13T02:43:35.489Z,10.32
2022-09-13T02:44:35.443Z,10.29
2022-09-13T02:45:35.414Z,10.23
2022-09-13T02:46:35.366Z,10.33
2022-09-13T02:47:35.367Z,10.29
2022-09-13T02:48:37.379Z,10.30
2022-09-13T02:49:35.367Z,10.23
2022-09-13T02:50:35.312Z,10.07
2022-09-13T02:51:35.298Z,10.07
2022-09-13T02:52:35.306Z,10.07
2022-09-13T02:53:35.298Z,10.07
2022-09-13T02:54:35.280Z,10.04
2022-09-13T02:55:35.308Z,10.05
2022-09-13T02:56:35.261Z,10.01
2022-09-13T02:57:35.236Z,10.04
2022-09-13T02:58:35.228Z,10.04
2022-09-13T02:59:35.324Z,9.99
2022-09-13T03:00:35.237Z,10.02
2022-09-13T03:01:35.312Z,10.04
2022-09-13T03:02:35.255Z,9.99
2022-09-13T03:03:35.174Z,10.04
2022-09-13T03:04:35.165Z,10.09
2022-09-13T03:05:35.179Z,9.99
2022-09-13T03:06:35.180Z,10.09
2022-09-13T03:07:35.121Z,10.02
2022-09-13T03:08:35.107Z,10.08
2022-09-13T03:09:35.120Z,10.02
2022-09-13T03:10:35.120Z,10.01
2022-09-13T03:11:35.094Z,9.96
2022-09-13T03:12:35.062Z,9.97
2022-09-13T03:13:35.060Z,9.94
2022-09-13T03:14:35.077Z,9.93
2022-09-13T03:15:35.051Z,9.81
2022-09-13T03:16:35.094Z,9.75
2022-09-13T03:17:35.049Z,9.75
2022-09-13T03:18:34.997Z,9.68
2022-09-13T03:19:34.999Z,9.74
2022-09-13T03:20:34.998Z,9.64
2022-09-13T03:21:35.020Z,9.74
2022-09-13T03:22:34.983Z,9.76
2022-09-13T03:23:34.937Z,9.78
2022-09-13T03:24:34.932Z,9.71
2022-09-13T03:25:34.915Z,9.78
2022-09-13T03:26:34.939Z,9.78
2022-09-13T03:27:34.931Z,9.76
2022-09-13T03:28:34.906Z,9.76
2022-09-13T03:29:34.870Z,9.76
2022-09-13T03:30:34.884Z,9.86
2022-09-13T03:31:34.953Z,9.79
2022-09-13T03:32:34.860Z,9.86
2022-09-13T03:33:34.852Z,9.84
2022-09-13T03:34:34.868Z,9.83
2022-09-13T03:35:34.803Z,9.78
2022-09-13T03:36:34.810Z,9.78
2022-09-13T03:37:34.793Z,9.69
2022-09-13T03:38:34.793Z,9.76
2022-09-13T03:39:34.803Z,9.64
2022-09-13T03:40:34.778Z,9.65
2022-09-13T03:41:34.736Z,9.61
2022-09-13T03:42:34.728Z,9.66
2022-09-13T03:43:34.732Z,9.60
2022-09-13T03:44:34.731Z,9.65
2022-09-13T03:45:34.766Z,9.69
2022-09-13T03:46:34.683Z,9.72
2022-09-13T03:47:34.698Z,9.64
2022-09-13T03:48:34.701Z,9.61
2022-09-13T03:49:34.657Z,9.64
2022-09-13T03:50:34.662Z,9.66
2022-09-13T03:51:34.626Z,9.75
2022-09-13T03:52:34.618Z,9.68
2022-09-13T03:53:34.626Z,9.71
2022-09-13T03:54:34.627Z,9.68
2022-09-13T03:55:34.592Z,9.66
2022-09-13T03:56:34.611Z,9.64
2022-09-13T03:57:34.609Z,9.64
2022-09-13T03:58:34.547Z,9.61
2022-09-13T03:59:34.534Z,9.61
2022-09-13T04:00:34.571Z,9.68
2022-09-13T04:01:34.621Z,9.74
2022-09-13T04:02:34.620Z,9.61
2022-09-13T04:03:34.603Z,9.61
2022-09-13T04:04:34.480Z,9.64
2022-09-13T04:05:35.214Z,9.78
2022-09-13T04:06:34.467Z,9.71
2022-09-13T04:07:34.477Z,9.76
2022-09-13T04:08:34.477Z,9.79
2022-09-13T04:09:34.464Z,9.83
2022-09-13T04:10:34.436Z,9.83
2022-09-13T04:11:34.412Z,9.87
2022-09-13T04:12:34.410Z,9.78
2022-09-13T04:13:34.412Z,9.86
2022-09-13T04:14:34.374Z,9.84
2022-09-13T04:15:34.403Z,9.84
2022-09-13T04:16:34.387Z,9.78
2022-09-13T04:17:34.350Z,9.78
2022-09-13T04:18:34.345Z,9.76
2022-09-13T04:19:34.364Z,9.90
2022-09-13T04:20:34.315Z,9.86
2022-09-13T04:21:34.308Z,9.87
2022-09-13T04:22:34.282Z,9.79
2022-09-13T04:23:34.281Z,9.76
2022-09-13T04:24:34.294Z,9.83
2022-09-13T04:25:34.243Z,9.89
2022-09-13T04:26:34.234Z,9.87
2022-09-13T04:27:34.256Z,9.81
2022-09-13T04:28:34.735Z,9.83
2022-09-13T04:29:34.218Z,9.74
2022-09-13T04:30:34.200Z,9.78
2022-09-13T04:31:34.244Z,9.81
2022-09-13T04:32:34.210Z,9.75
2022-09-13T04:33:34.155Z,9.81
2022-09-13T04:34:34.160Z,9.75
2022-09-13T04:35:34.192Z,9.76
2022-09-13T04:36:34.152Z,9.75
2022-09-13T04:37:34.109Z,9.75
2022-09-13T04:38:34.109Z,9.61
2022-09-13T04:39:34.098Z,9.75
2022-09-13T04:40:34.090Z,9.71
2022-09-13T04:41:34.098Z,9.66
2022-09-13T04:42:34.102Z,9.61
2022-09-13T04:43:34.046Z,9.65
2022-09-13T04:44:34.048Z,9.65
2022-09-13T04:45:34.106Z,9.71
2022-09-13T04:46:34.023Z,9.64
2022-09-13T04:47:34.040Z,9.61
2022-09-13T04:48:33.988Z,9.66
2022-09-13T04:49:33.980Z,9.68
2022-09-13T04:50:33.997Z,9.65
2022-09-13T04:51:33.987Z,9.68
2022-09-13T04:52:33.961Z,9.65
2022-09-13T04:53:33.966Z,9.66
2022-09-13T04:54:33.951Z,9.68
2022-09-13T04:55:33.958Z,9.60
2022-09-13T04:56:33.907Z,9.65
2022-09-13T04:57:33.896Z,9.60
2022-09-13T04:58:33.898Z,9.74
2022-09-13T04:59:33.863Z,9.60
2022-09-13T05:00:33.860Z,9.66
2022-09-13T05:01:33.896Z,9.64
2022-09-13T05:02:33.898Z,9.65
2022-09-13T05:03:33.838Z,9.65
2022-09-13T05:04:33.839Z,9.64
2022-09-13T05:05:33.798Z,9.65
2022-09-13T05:06:33.792Z,9.68
2022-09-13T05:07:33.826Z,9.64
2022-09-13T05:08:33.780Z,9.75
2022-09-13T05:09:33.792Z,9.71
2022-09-13T05:10:33.756Z,9.78
2022-09-13T05:11:33.728Z,9.69
2022-09-13T05:12:33.734Z,9.72
2022-09-13T05:13:33.751Z,9.76
2022-09-13T05:14:33.724Z,9.76
2022-09-13T05:15:33.714Z,9.75
2022-09-13T05:16:33.678Z,9.74
2022-09-13T05:17:33.701Z,9.81
2022-09-13T05:18:33.653Z,9.87
2022-09-13T05:19:33.657Z,9.84
2022-09-13T05:20:33.642Z,9.86
2022-09-13T05:21:33.626Z,9.87
2022-09-13T05:22:33.608Z,9.96
2022-09-13T05:23:33.638Z,9.96
2022-09-13T05:24:33.585Z,9.93
2022-09-13T05:25:33.596Z,9.96
2022-09-13T05:26:33.590Z,9.93
2022-09-13T05:27:33.590Z,9.91
2022-09-13T05:28:33.540Z,9.90
2022-09-13T05:29:33.527Z,9.99
2022-09-13T05:30:33.522Z,10.04
2022-09-13T05:31:33.687Z,9.97
2022-09-13T05:32:33.525Z,10.08
2022-09-13T05:33:33.531Z,10.02
2022-09-13T05:34:33.536Z,10.12
2022-09-13T05:35:33.485Z,10.09
2022-09-13T05:36:33.466Z,10.09
2022-09-13T05:37:33.464Z,10.15
2022-09-13T05:38:33.474Z,10.17
2022-09-13T05:39:54.095Z,10.20
2022-09-13T05:40:34.496Z,10.23
2022-09-13T05:41:33.395Z,10.25
2022-09-13T05:42:33.401Z,10.14
2022-09-13T05:43:33.383Z,10.30
2022-09-13T05:44:33.409Z,10.29
2022-09-13T05:45:33.406Z,10.27
2022-09-13T05:46:33.387Z,10.38
2022-09-13T05:47:33.366Z,10.32
2022-09-13T05:48:33.337Z,10.38
2022-09-13T05:49:33.348Z,10.44
2022-09-13T05:50:57.447Z,10.47
2022-09-13T05:51:34.283Z,10.48
2022-09-13T05:52:33.278Z,10.47
2022-09-13T05:53:33.305Z,10.45
2022-09-13T05:54:33.265Z,10.59
2022-09-13T05:55:33.356Z,10.55
2022-09-13T05:56:33.280Z,10.60
2022-09-13T05:57:33.223Z,10.63
2022-09-13T05:58:33.236Z,10.63
2022-09-13T05:59:33.214Z,10.67
2022-09-13T06:00:33.236Z,10.68
2022-09-13T06:01:33.249Z,10.66
2022-09-13T06:02:33.290Z,10.70
2022-09-13T06:03:33.159Z,10.74
2022-09-13T06:04:33.143Z,10.84
2022-09-13T06:05:33.139Z,10.81
2022-09-13T06:06:33.147Z,10.85
2022-09-13T06:07:33.137Z,10.76
2022-09-13T06:08:33.167Z,10.84
2022-09-13T06:09:33.080Z,10.88
2022-09-13T06:10:33.080Z,10.85
2022-09-13T06:11:33.161Z,10.88
2022-09-13T06:12:33.082Z,11.03
2022-09-13T06:13:33.038Z,10.91
2022-09-13T06:14:33.063Z,11.09
2022-09-13T06:15:33.014Z,11.18
2022-09-13T06:16:33.159Z,11.17
2022-09-13T06:17:32.995Z,11.25
2022-09-13T06:18:33.001Z,11.27
2022-09-13T06:19:32.970Z,11.19
2022-09-13T06:20:32.974Z,11.27
2022-09-13T06:21:32.984Z,11.29
2022-09-13T06:22:32.962Z,11.36
2022-09-13T06:23:32.958Z,11.46
2022-09-13T06:24:32.928Z,11.52
2022-09-13T06:25:32.906Z,11.55
2022-09-13T06:26:32.895Z,11.52
2022-09-13T06:27:32.938Z,11.62
2022-09-13T06:28:36.777Z,11.64
2022-09-13T06:29:32.872Z,11.67
2022-09-13T06:30:32.879Z,11.72
2022-09-13T06:31:32.879Z,11.73
2022-09-13T06:32:32.828Z,11.79
2022-09-13T06:33:32.821Z,11.86
2022-09-13T06:34:32.844Z,11.95
2022-09-13T06:35:32.814Z,11.96
2022-09-13T06:36:32.782Z,11.96
2022-09-13T06:37:32.777Z,12.10
2022-09-13T06:38:32.794Z,12.09
2022-09-13T06:39:32.768Z,12.12
2022-09-13T06:40:32.852Z,12.21
2022-09-13T06:41:32.735Z,12.24
2022-09-13T06:42:32.718Z,12.29
2022-09-13T06:43:33.328Z,12.32
2022-09-13T06:44:32.734Z,12.35
2022-09-13T06:45:32.712Z,12.49
2022-09-13T06:46:32.756Z,12.47
2022-09-13T06:47:32.682Z,12.59
2022-09-13T06:48:32.651Z,12.57
2022-09-13T06:49:32.638Z,12.60
2022-09-13T06:50:32.639Z,12.67
2022-09-13T06:51:32.678Z,12.74
2022-09-13T06:52:32.647Z,12.75
2022-09-13T06:53:32.596Z,12.85
2022-09-13T06:54:32.591Z,12.89
2022-09-13T06:55:32.573Z,12.95
2022-09-13T06:56:32.818Z,12.96
2022-09-13T06:57:32.586Z,13.04
2022-09-13T06:58:32.591Z,13.11
2022-09-13T06:59:32.553Z,13.17
2022-09-13T07:00:32.581Z,13.23
2022-09-13T07:01:32.675Z,13.42
2022-09-13T07:02:32.509Z,13.55
2022-09-13T07:03:32.492Z,13.63
2022-09-13T07:04:32.497Z,13.70
2022-09-13T07:05:32.495Z,13.88
2022-09-13T07:06:32.469Z,14.06
2022-09-13T07:07:32.482Z,14.15
2022-09-13T07:08:32.457Z,14.39
2022-09-13T07:09:32.427Z,14.46
2022-09-13T07:10:32.424Z,14.54
2022-09-13T07:11:32.400Z,14.77
2022-09-13T07:12:32.384Z,14.88
2022-09-13T07:13:32.412Z,14.94
2022-09-13T07:14:32.360Z,15.11
2022-09-13T07:15:32.463Z,15.16
2022-09-13T07:16:32.366Z,15.31
2022-09-13T07:17:32.338Z,15.36
2022-09-13T07:18:32.342Z,15.57
2022-09-13T07:19:32.331Z,15.67
2022-09-13T07:20:32.337Z,15.74
2022-09-13T07:21:32.305Z,15.86
2022-09-13T07:22:32.314Z,15.87
2022-09-13T07:23:32.263Z,15.94
2022-09-13T07:24:32.266Z,16.07
2022-09-13T07:25:32.268Z,16.08
2022-09-13T07:26:32.274Z,16.12
2022-09-13T07:27:32.248Z,16.21
2022-09-13T07:28:35.207Z,16.24
2022-09-13T07:29:32.194Z,16.31
2022-09-13T07:30:32.207Z,16.30
2022-09-13T07:31:32.421Z,16.43
2022-09-13T07:32:32.213Z,16.35
2022-09-13T07:33:32.171Z,16.46
2022-09-13T07:34:32.135Z,16.45
2022-09-13T07:35:32.132Z,16.45
2022-09-13T07:36:32.146Z,16.57
2022-09-13T07:37:32.110Z,16.60
2022-09-13T07:38:40.343Z,16.57
2022-09-13T07:39:32.081Z,16.63
2022-09-13T07:40:32.067Z,16.66
2022-09-13T07:41:32.072Z,16.64
2022-09-13T07:42:32.079Z,16.66
2022-09-13T07:43:32.044Z,16.64
2022-09-13T07:44:32.040Z,16.73
2022-09-13T07:45:32.021Z,16.68
2022-09-13T07:46:32.068Z,16.75
2022-09-13T07:47:32.043Z,16.63
2022-09-13T07:48:33.690Z,16.76
2022-09-13T07:49:31.983Z,16.76
2022-09-13T07:50:31.978Z,16.85
2022-09-13T07:51:31.947Z,16.76
2022-09-13T07:52:31.940Z,16.93
2022-09-13T07:53:31.956Z,16.91
2022-09-13T07:54:31.941Z,16.97
2022-09-13T07:55:31.931Z,17.03
2022-09-13T07:56:31.889Z,16.88
2022-09-13T07:57:31.878Z,16.98
2022-09-13T07:58:31.886Z,17.04
2022-09-13T07:59:31.886Z,17.03
2022-09-13T08:00:31.855Z,17.01
2022-09-13T08:01:32.027Z,17.00
2022-09-13T08:02:31.899Z,17.08
2022-09-13T08:03:31.914Z,17.14
2022-09-13T08:04:35.786Z,17.12
2022-09-13T08:05:31.827Z,17.25
2022-09-13T08:06:31.791Z,17.25
2022-09-13T08:07:31.804Z,17.30
2022-09-13T08:08:31.755Z,17.36
2022-09-13T08:09:31.763Z,17.36
2022-09-13T08:10:31.745Z,17.36
2022-09-13T08:11:31.726Z,17.54
2022-09-13T08:12:31.730Z,17.48
2022-09-13T08:13:31.702Z,17.48
2022-09-13T08:14:31.735Z,17.62
2022-09-13T08:15:31.747Z,17.46
2022-09-13T08:16:31.689Z,17.64
2022-09-13T08:17:31.663Z,17.55
2022-09-13T08:18:31.663Z,17.58
2022-09-13T08:19:31.687Z,17.62
2022-09-13T08:20:31.622Z,17.77
2022-09-13T08:21:31.637Z,17.68
2022-09-13T08:22:31.644Z,17.64
2022-09-13T08:23:31.640Z,17.78
2022-09-13T08:24:31.623Z,17.79
2022-09-13T08:25:31.620Z,17.86
2022-09-13T08:26:31.586Z,17.90
2022-09-13T08:27:31.880Z,17.93
2022-09-13T08:28:31.535Z,18.02
2022-09-13T08:29:31.596Z,18.02
2022-09-13T08:30:31.577Z,18.10
2022-09-13T08:31:31.501Z,18.11
2022-09-13T08:32:31.500Z,18.15
2022-09-13T08:33:31.508Z,18.14
2022-09-13T08:34:31.476Z,18.26
2022-09-13T08:35:31.649Z,18.35
2022-09-13T08:36:31.480Z,18.42
2022-09-13T08:37:31.444Z,18.45
2022-09-13T08:38:31.450Z,18.42
2022-09-13T08:39:33.438Z,18.57
2022-09-13T08:40:31.413Z,18.54
2022-09-13T08:41:31.402Z,18.55
2022-09-13T08:42:31.377Z,18.69
2022-09-13T08:43:31.373Z,18.69
2022-09-13T08:44:31.386Z,18.69
2022-09-13T08:45:31.390Z,18.82
2022-09-13T08:46:31.410Z,18.84
2022-09-13T08:47:31.355Z,18.72
2022-09-13T08:48:31.315Z,18.72
2022-09-13T08:49:31.315Z,18.82
2022-09-13T08:50:31.305Z,18.81
2022-09-13T08:51:31.299Z,18.85
2022-09-13T08:52:31.287Z,18.80
2022-09-13T08:53:31.285Z,18.90
2022-09-13T08:54:31.243Z,19.00
2022-09-13T08:55:31.261Z,19.04
2022-09-13T08:56:31.249Z,19.04
2022-09-13T08:57:31.219Z,19.00
2022-09-13T08:58:31.213Z,19.11
2022-09-13T08:59:31.192Z,19.19
2022-09-13T09:00:31.185Z,19.26
2022-09-13T09:01:31.203Z,19.32
2022-09-13T09:02:31.255Z,19.37
2022-09-13T09:03:31.157Z,19.47
2022-09-13T09:04:31.130Z,19.61
2022-09-13T09:05:31.174Z,19.61
2022-09-13T09:06:31.124Z,19.65
2022-09-13T09:07:31.159Z,19.73
2022-09-13T09:08:31.090Z,19.74
2022-09-13T09:09:31.095Z,19.77
2022-09-13T09:10:31.098Z,19.91
2022-09-13T09:11:31.063Z,19.81
2022-09-13T09:12:31.065Z,19.88
2022-09-13T09:13:31.056Z,19.87
2022-09-13T09:14:31.060Z,19.84
2022-09-13T09:15:31.068Z,19.98
2022-09-13T09:16:31.000Z,19.98
2022-09-13T09:17:30.993Z,19.87
2022-09-13T09:18:30.996Z,19.99
2022-09-13T09:19:31.018Z,19.92
2022-09-13T09:20:30.969Z,19.94
2022-09-13T09:21:30.966Z,19.95
2022-09-13T09:22:30.971Z,20.01
2022-09-13T09:23:31.032Z,20.01
2022-09-13T09:24:30.927Z,20.01
2022-09-13T09:25:30.945Z,20.01
2022-09-13T09:26:30.907Z,19.99
2022-09-13T09:27:30.922Z,19.98
2022-09-13T09:28:30.866Z,19.96
2022-09-13T09:29:30.871Z,19.98
2022-09-13T09:30:30.884Z,19.96
2022-09-13T09:31:30.870Z,20.10
2022-09-13T09:32:30.836Z,20.06
2022-09-13T09:33:30.811Z,20.02
2022-09-13T09:34:30.806Z,20.13
2022-09-13T09:35:30.813Z,20.20
2022-09-13T09:36:30.812Z,20.35
2022-09-13T09:37:30.787Z,20.32
2022-09-13T09:38:30.775Z,20.47
2022-09-13T09:39:30.809Z,20.43
2022-09-13T09:40:31.798Z,20.51
2022-09-13T09:41:30.737Z,20.51
2022-09-13T09:42:30.714Z,20.51
2022-09-13T09:43:30.737Z,20.52
2022-09-13T09:44:30.722Z,20.62
2022-09-13T09:45:30.677Z,20.72
2022-09-13T09:46:30.779Z,20.82
2022-09-13T09:47:30.674Z,20.84
2022-09-13T09:48:30.645Z,20.91
2022-09-13T09:49:30.641Z,20.79
2022-09-13T09:50:30.660Z,20.84
2022-09-13T09:51:30.616Z,20.84
2022-09-13T09:52:30.618Z,20.80
2022-09-13T09:53:34.852Z,20.82
2022-09-13T09:54:31.609Z,20.92
2022-09-13T09:55:30.706Z,20.97
2022-09-13T09:56:30.554Z,20.85
2022-09-13T09:57:30.555Z,20.77
2022-09-13T09:58:30.557Z,20.79
2022-09-13T09:59:30.564Z,20.79
2022-09-13T10:00:30.565Z,20.72
2022-09-13T10:01:30.556Z,20.79
2022-09-13T10:02:30.550Z,20.72
2022-09-13T10:03:30.493Z,20.72
2022-09-13T10:04:30.477Z,20.73
2022-09-13T10:05:30.502Z,20.74
2022-09-13T10:06:30.462Z,20.85
2022-09-13T10:07:30.466Z,20.84
2022-09-13T10:08:30.436Z,20.84
2022-09-13T10:09:30.419Z,20.91
2022-09-13T10:10:30.476Z,20.89
2022-09-13T10:11:30.464Z,20.97
2022-09-13T10:12:30.401Z,20.99
2022-09-13T10:13:31.900Z,21.06
2022-09-13T10:14:30.370Z,21.07
2022-09-13T10:15:30.372Z,21.10
2022-09-13T10:16:30.447Z,21.16
2022-09-13T10:17:30.336Z,21.17
2022-09-13T10:18:44.050Z,21.32
2022-09-13T10:19:31.309Z,21.40
2022-09-13T10:20:30.307Z,21.42
2022-09-13T10:21:30.311Z,21.49
2022-09-13T10:22:30.275Z,21.58
2022-09-13T10:23:30.272Z,21.64
2022-09-13T10:24:30.270Z,21.67
2022-09-13T10:25:30.249Z,21.74
2022-09-13T10:26:30.243Z,21.68
2022-09-13T10:27:30.349Z,21.74
2022-09-13T10:28:30.208Z,21.69
2022-09-13T10:29:30.233Z,21.74
2022-09-13T10:30:30.248Z,21.79
2022-09-13T10:31:30.178Z,21.84
2022-09-13T10:32:30.180Z,21.98
2022-09-13T10:33:30.191Z,22.02
2022-09-13T10:34:30.147Z,22.17
2022-09-13T10:35:30.173Z,22.24
2022-09-13T10:36:51.083Z,22.33
2022-09-13T10:37:31.136Z,22.46
2022-09-13T10:38:30.129Z,22.51
2022-09-13T10:39:30.126Z,22.64
2022-09-13T10:40:30.086Z,22.60
2022-09-13T10:41:30.091Z,22.72
2022-09-13T10:42:38.076Z,22.77
2022-09-13T10:43:30.044Z,22.80
2022-09-13T10:44:30.048Z,22.85
2022-09-13T10:45:30.015Z,22.88
2022-09-13T10:46:29.997Z,22.97
2022-09-13T10:47:30.012Z,22.91
2022-09-13T10:48:29.985Z,22.92
2022-09-13T10:49:29.996Z,22.91
2022-09-13T10:50:29.985Z,22.94
2022-09-13T10:51:29.966Z,22.98
2022-09-13T10:52:29.938Z,23.02
2022-09-13T10:53:29.922Z,23.01
2022-09-13T10:54:29.926Z,23.09
2022-09-13T10:55:29.924Z,22.97
2022-09-13T10:56:29.890Z,23.05
2022-09-13T10:57:29.886Z,23.05
2022-09-13T10:58:29.908Z,23.05
2022-09-13T10:59:29.857Z,23.01
2022-09-13T11:00:29.888Z,23.07
2022-09-13T11:01:29.900Z,23.01
2022-09-13T11:02:29.828Z,23.04
2022-09-13T11:03:29.905Z,23.02
2022-09-13T11:04:29.860Z,23.01
2022-09-13T11:05:29.796Z,23.12
2022-09-13T11:06:29.803Z,23.07
2022-09-13T11:07:29.765Z,23.10
2022-09-13T11:08:29.768Z,23.23
2022-09-13T11:09:29.745Z,23.19
2022-09-13T11:10:29.784Z,23.25
2022-09-13T11:11:29.748Z,23.16
2022-09-13T11:12:29.737Z,23.20
2022-09-13T11:13:29.714Z,23.33
2022-09-13T11:14:29.788Z,23.42
2022-09-13T11:15:29.686Z,23.36
2022-09-13T11:16:29.721Z,23.36
2022-09-13T11:17:29.674Z,23.48
2022-09-13T11:18:29.678Z,23.51
2022-09-13T11:19:29.649Z,23.53
2022-09-13T11:20:29.644Z,23.57
2022-09-13T11:21:29.615Z,23.60
2022-09-13T11:22:29.611Z,23.63
2022-09-13T11:23:29.606Z,23.57
2022-09-13T11:24:29.613Z,23.60
2022-09-13T11:25:29.575Z,23.61
2022-09-13T11:26:29.580Z,23.66
2022-09-13T11:27:29.607Z,23.65
2022-09-13T11:28:29.548Z,23.61
2022-09-13T11:29:29.546Z,23.61
2022-09-13T11:30:30.237Z,23.61
2022-09-13T11:31:29.550Z,23.66
2022-09-13T11:32:29.497Z,23.68
2022-09-13T11:33:29.480Z,23.72
2022-09-13T11:34:29.519Z,23.75
2022-09-13T11:35:29.494Z,23.79
2022-09-13T11:36:29.449Z,23.75
2022-09-13T11:37:29.457Z,23.70
2022-09-13T11:38:29.442Z,23.70
2022-09-13T11:39:29.420Z,23.70
2022-09-13T11:40:29.415Z,23.66
2022-09-13T11:41:29.449Z,23.61
2022-09-13T11:42:29.389Z,23.61
2022-09-13T11:43:29.393Z,23.60
2022-09-13T11:44:29.386Z,23.65
2022-09-13T11:45:29.436Z,23.58
2022-09-13T11:46:29.356Z,23.58
2022-09-13T11:47:29.324Z,23.65
2022-09-13T11:48:29.328Z,23.55
2022-09-13T11:49:29.384Z,23.63
2022-09-13T11:50:29.291Z,23.60
2022-09-13T11:51:29.288Z,23.66
2022-09-13T11:52:29.292Z,23.63
2022-09-13T11:53:30.232Z,23.68
2022-09-13T11:54:29.248Z,23.69
2022-09-13T11:55:29.255Z,23.73
2022-09-13T11:56:29.285Z,23.73
2022-09-13T11:57:29.243Z,23.69
2022-09-13T11:58:29.238Z,23.65
2022-09-13T11:59:29.213Z,23.65
2022-09-13T12:00:29.187Z,23.65
2022-09-13T12:01:29.185Z,23.68
2022-09-13T12:02:29.349Z,23.73
2022-09-13T12:03:29.270Z,23.72
2022-09-13T12:04:33.539Z,23.68
2022-09-13T12:05:29.129Z,23.72
2022-09-13T12:06:29.128Z,23.76
2022-09-13T12:07:29.105Z,23.70
2022-09-13T12:08:29.111Z,23.70
2022-09-13T12:09:29.109Z,23.72
2022-09-13T12:10:29.119Z,23.66
2022-09-13T12:11:29.077Z,23.69
2022-09-13T12:12:29.060Z,23.72
2022-09-13T12:13:29.045Z,23.66
2022-09-13T12:14:29.051Z,23.69
2022-09-13T12:15:29.017Z,23.65
2022-09-13T12:16:31.030Z,23.65
2022-09-13T12:17:29.994Z,23.65
2022-09-13T12:18:29.020Z,23.69
2022-09-13T12:19:29.007Z,23.63
2022-09-13T12:20:28.982Z,23.61
2022-09-13T12:21:28.984Z,23.66
2022-09-13T12:22:31.045Z,23.63
2022-09-13T12:23:28.969Z,23.79
2022-09-13T12:24:28.946Z,23.78
2022-09-13T12:25:28.921Z,23.79
2022-09-13T12:26:28.915Z,23.79
2022-09-13T12:27:28.885Z,23.87
2022-09-13T12:28:28.874Z,23.87
2022-09-13T12:29:28.952Z,23.90
2022-09-13T12:30:28.852Z,23.87
2022-09-13T12:31:28.882Z,23.80
2022-09-13T12:32:28.828Z,23.87
2022-09-13T12:33:28.819Z,23.85
2022-09-13T12:34:28.976Z,23.83
2022-09-13T12:35:28.816Z,23.87
2022-09-13T12:36:28.792Z,23.90
2022-09-13T12:37:28.824Z,23.95
2022-09-13T12:38:31.514Z,23.94
2022-09-13T12:39:28.775Z,23.90
2022-09-13T12:40:28.766Z,23.87
2022-09-13T12:41:28.755Z,23.87
2022-09-13T12:42:28.732Z,23.85
2022-09-13T12:43:28.752Z,23.78
2022-09-13T12:44:33.412Z,23.76
2022-09-13T12:45:29.767Z,23.78
2022-09-13T12:46:28.678Z,23.70
2022-09-13T12:47:28.694Z,23.68
2022-09-13T12:48:28.673Z,23.69
2022-09-13T12:49:28.641Z,23.84
2022-09-13T12:50:42.935Z,23.83
2022-09-13T12:51:29.644Z,23.75
2022-09-13T12:52:28.627Z,23.79
2022-09-13T12:53:28.605Z,23.76
2022-09-13T12:54:28.611Z,23.87
2022-09-13T12:55:46.134Z,23.78
2022-09-13T12:56:29.576Z,23.85
2022-09-13T12:57:28.592Z,23.88